Oakwood, Ohio
Current Conditions -  °F | °C
As of 6:53 AM on Sunday 23 Nov 2014 (Local Time) from KDFI Reporting Station
Overcast Overcast  
Wind Chill: 43°   Ceiling: 3900
Heat Index: 46°   Visibility: 9mi
Dew Point: 43°   Wind: 6mph
Humidity: 89%   Direction: 170°S
Pressure: 29.94"   Gusts: NA
Location:  41.1°N, 84.38°W
Report Text: KDFI 231153Z AUTO 17005KT 9SM OVC039 08/06 A2994 RMK AO2 RAE05 SLP140 P0000 60007 70010 T00780061 10106 20078 56010
Loading
Personal Weather Stations






























Interactive Weather Map New forecast layout! Learn more

10-Day Weather Forecast

Advertisements
Track Severe Weather on mobile